Time,TemperatureF,DewpointF,PressureIn,WindDirection,WindDirectionDegrees,WindSpeedMPH,WindSpeedGustMPH,Humidity,HourlyPrecipIn,Conditions,Clouds,dailyrainin,SoftwareType,DateUTC
2013-12-08 00:03:00,-4.0,-12.0,30.35,West,267,5.0,-999.0,66,-99.99,,,-99.99,,2013-12-08 05:03:00,
2013-12-08 06:22:00,-8.0,-14.0,30.34,North,-999,-999.0,-999.0,75,-99.99,,,-99.99,,2013-12-08 11:22:00,
2013-12-08 06:43:00,-8.0,-14.0,30.35,North,-999,-999.0,-999.0,75,-99.99,,,-99.99,,2013-12-08 11:43:00,
2013-12-08 06:52:00,-8.0,-14.0,30.35,North,-999,-999.0,-999.0,75,-99.99,,,-99.99,,2013-12-08 11:52:00,
2013-12-08 07:22:00,-8.0,-14.0,30.35,North,-999,-999.0,-999.0,75,-99.99,,,-99.99,,2013-12-08 12:22:00,
2013-12-08 07:32:00,-8.0,-14.0,30.35,North,-999,-999.0,-999.0,75,-99.99,,,-99.99,,2013-12-08 12:32:00,
2013-12-08 07:42:00,-8.0,-14.0,30.35,North,-999,-999.0,-999.0,75,-99.99,,,-99.99,,2013-12-08 12:42:00,
2013-12-08 07:52:00,-8.0,-14.0,30.34,North,-999,-999.0,-999.0,75,-99.99,,,-99.99,,2013-12-08 12:52:00,
2013-12-08 08:22:00,-9.0,-15.0,30.32,North,-999,-999.0,-999.0,75,-99.99,,,-99.99,,2013-12-08 13:22:00,
2013-12-08 08:52:00,-9.0,-15.0,30.31,North,-999,-999.0,-999.0,75,-99.99,,,-99.99,,2013-12-08 13:52:00,
2013-12-08 09:22:00,-8.0,-14.0,30.30,North,-999,-999.0,-999.0,75,-99.99,,,-99.99,,2013-12-08 14:22:00,
2013-12-08 09:42:00,-8.0,-14.0,30.30,North,-999,-999.0,-999.0,76,-99.99,,,-99.99,,2013-12-08 14:42:00,
2013-12-08 09:52:00,-7.0,-13.0,30.30,North,-999,-999.0,-999.0,76,-99.99,,,-99.99,,2013-12-08 14:52:00,
2013-12-08 10:22:00,-5.0,-11.0,30.32,North,-999,-999.0,-999.0,76,-99.99,,,-99.99,,2013-12-08 15:22:00,
2013-12-08 10:54:00,-4.0,-10.0,30.32,North,-999,-999.0,-999.0,76,-99.99,,,-99.99,,2013-12-08 15:54:00,
2013-12-08 11:23:00,0.0,-6.0,30.32,North,-999,-999.0,-999.0,76,-99.99,,,-99.99,,2013-12-08 16:23:00,
2013-12-08 11:43:00,0.0,-6.0,30.32,North,-999,-999.0,-999.0,75,-99.99,,,-99.99,,2013-12-08 16:43:00,
2013-12-08 11:53:00,2.0,-4.0,30.31,North,-999,-999.0,-999.0,76,-99.99,,,-99.99,,2013-12-08 16:53:00,
2013-12-08 12:12:00,3.0,-3.0,30.29,North,-999,-999.0,-999.0,75,-99.99,,,-99.99,,2013-12-08 17:12:00,
2013-12-08 12:22:00,3.0,-3.0,30.28,North,-999,-999.0,-999.0,75,-99.99,,,-99.99,,2013-12-08 17:22:00,
2013-12-08 12:42:00,4.0,-2.0,30.27,North,-999,-999.0,-999.0,74,-99.99,,,-99.99,,2013-12-08 17:42:00,
2013-12-08 12:52:00,5.0,-1.0,30.27,North,-999,-999.0,-999.0,74,-99.99,,,-99.99,,2013-12-08 17:52:00,
2013-12-08 13:22:00,7.0,-1.0,30.24,North,-999,-999.0,-999.0,69,-99.99,,,-99.99,,2013-12-08 18:22:00,
2013-12-08 13:42:00,8.0,-2.0,30.22,North,-999,-999.0,-999.0,63,-99.99,,,-99.99,,2013-12-08 18:42:00,
2013-12-08 13:52:00,9.0,-2.0,30.22,North,-999,-999.0,-999.0,59,-99.99,,,-99.99,,2013-12-08 18:52:00,
2013-12-08 14:22:00,9.0,-4.0,30.20,North,-999,-999.0,-999.0,55,-99.99,,,-99.99,,2013-12-08 19:22:00,
2013-12-08 14:42:00,9.0,-3.0,30.20,North,-999,-999.0,-999.0,56,-99.99,,,-99.99,,2013-12-08 19:42:00,
2013-12-08 14:52:00,9.0,-3.0,30.20,North,-999,-999.0,-999.0,56,-99.99,,,-99.99,,2013-12-08 19:52:00,
2013-12-08 15:22:00,10.0,-3.0,30.18,North,-999,-999.0,-999.0,56,-99.99,,,-99.99,,2013-12-08 20:22:00,
2013-12-08 15:32:00,10.0,-3.0,30.18,North,-999,-999.0,-999.0,56,-99.99,,,-99.99,,2013-12-08 20:32:00,
2013-12-08 15:42:00,10.0,-3.0,30.18,North,-999,-999.0,-999.0,56,-99.99,,,-99.99,,2013-12-08 20:42:00,
2013-12-08 15:53:00,10.0,-3.0,30.17,North,-999,-999.0,-999.0,56,-99.99,,,-99.99,,2013-12-08 20:53:00,
2013-12-08 16:22:00,10.0,-2.0,30.16,North,-999,-999.0,-999.0,58,-99.99,,,-99.99,,2013-12-08 21:22:00,
2013-12-08 16:53:00,9.0,-1.0,30.15,North,-999,-999.0,-999.0,63,-99.99,,,-99.99,,2013-12-08 21:53:00,
2013-12-08 17:23:00,9.0,0.0,30.14,North,-999,-999.0,-999.0,66,-99.99,,,-99.99,,2013-12-08 22:23:00,
2013-12-08 17:43:00,8.0,-1.0,30.14,North,-999,-999.0,-999.0,67,-99.99,,,-99.99,,2013-12-08 22:43:00,
2013-12-08 23:13:00,8.0,3.0,29.96,North,-999,-999.0,-999.0,81,-99.99,,,-99.99,,2013-12-09 04:13:00,
2013-12-08 23:23:00,8.0,3.0,29.96,North,-999,-999.0,-999.0,81,-99.99,,,-99.99,,2013-12-09 04:23:00,
2013-12-08 23:52:00,8.0,3.0,29.96,North,-999,-999.0,-999.0,81,-99.99,,,-99.99,,2013-12-09 04:52:00,